Time;durP1;ratioP1;P1;durP2;ratioP2;P2;SDS_P1;SDS_P2;PMS_P1;PMS_P2;Temp;Humidity;BMP_temperature;BMP_pressure;BME280_temperature;BME280_humidity;BME280_pressure;Samples;Min_cycle;Max_cycle;Signal;HPM_P1;HPM_P2
2021/04/10 00:01:37;;;;;;;20.50;3.13;;;11.20;99.90;;;;;;5035740;28;20180;-69
2021/04/10 00:04:15;;;;;;;14.80;3.40;;;11.30;99.90;;;;;;5040924;28;20196;-69
2021/04/10 00:06:44;;;;;;;11.33;3.80;;;11.10;99.90;;;;;;5014760;28;20290;-69
2021/04/10 00:09:15;;;;;;;9.87;3.20;;;11.20;99.90;;;;;;5032158;28;20187;-69
2021/04/10 00:11:43;;;;;;;11.13;2.97;;;11.20;99.90;;;;;;5013951;28;20196;-68
2021/04/10 00:14:14;;;;;;;12.23;3.03;;;11.10;99.90;;;;;;5009795;28;20199;-68
2021/04/10 00:16:43;;;;;;;11.80;3.00;;;11.20;99.90;;;;;;5016173;28;20693;-67
2021/04/10 00:19:15;;;;;;;15.13;3.43;;;11.20;99.90;;;;;;5031509;28;20199;-68
2021/04/10 00:21:44;;;;;;;14.17;3.30;;;11.20;99.90;;;;;;5015641;28;20184;-68
2021/04/10 00:24:12;;;;;;;14.97;3.17;;;11.20;99.90;;;;;;5015139;28;20215;-67
2021/04/10 00:26:39;;;;;;;14.83;3.20;;;11.30;99.90;;;;;;5018351;28;20258;-68
2021/04/10 00:29:14;;;;;;;11.33;3.00;;;11.30;99.90;;;;;;5035420;28;20216;-69
2021/04/10 00:31:45;;;;;;;11.90;2.63;;;11.30;99.90;;;;;;5014120;28;20292;-69
2021/04/10 00:34:13;;;;;;;13.37;3.30;;;11.30;99.90;;;;;;5019817;28;20844;-69
2021/04/10 00:36:41;;;;;;;10.90;2.60;;;11.30;99.90;;;;;;5032328;28;20228;-69
2021/04/10 00:39:09;;;;;;;8.60;2.53;;;11.30;99.90;;;;;;5031505;28;20595;-69
2021/04/10 00:41:39;;;;;;;9.43;2.53;;;11.30;99.90;;;;;;5044567;28;20195;-69
2021/04/10 00:44:08;;;;;;;4.97;1.97;;;11.20;99.90;;;;;;5011975;28;20187;-69
2021/04/10 00:46:36;;;;;;;10.47;2.60;;;11.30;99.90;;;;;;5016114;28;20199;-69
2021/04/10 00:49:04;;;;;;;8.93;2.80;;;11.40;99.90;;;;;;5032738;28;20196;-70
2021/04/10 00:51:33;;;;;;;9.97;2.47;;;11.40;99.90;;;;;;5034633;28;20200;-69
2021/04/10 00:54:03;;;;;;;10.10;2.80;;;11.40;99.90;;;;;;5016633;28;20203;-68
2021/04/10 00:56:32;;;;;;;12.97;2.40;;;11.30;99.90;;;;;;5018154;28;20208;-68
2021/04/10 00:59:08;;;;;;;9.83;2.07;;;11.30;99.90;;;;;;5016949;28;20204;-69
2021/04/10 01:01:40;;;;;;;9.67;2.17;;;11.20;99.90;;;;;;5029384;28;20192;-68
2021/04/10 01:04:08;;;;;;;10.37;2.87;;;11.10;99.90;;;;;;5012432;28;20184;-68
2021/04/10 01:06:40;;;;;;;8.27;2.37;;;11.20;99.90;;;;;;5037404;28;20195;-69
2021/04/10 01:09:09;;;;;;;9.83;2.47;;;11.10;99.90;;;;;;5034103;28;20278;-68
2021/04/10 01:11:58;;;;;;;13.13;2.80;;;11.10;99.90;;;;;;5015998;28;20196;-69
2021/04/10 01:15:01;;;;;;;13.17;2.67;;;11.10;99.90;;;;;;5016002;28;20214;-69
2021/04/10 01:17:37;;;;;;;7.60;2.10;;;11.00;99.90;;;;;;5029459;28;20281;-69
2021/04/10 01:20:40;;;;;;;17.17;2.30;;;10.90;99.90;;;;;;5042171;28;20196;-69
2021/04/10 01:24:03;;;;;;;13.27;2.70;;;10.80;99.90;;;;;;5028064;28;20210;-69
2021/04/10 01:27:06;;;;;;;7.17;2.53;;;10.60;99.90;;;;;;5028746;28;20191;-69
2021/04/10 01:29:43;;;;;;;6.03;2.10;;;10.40;99.90;;;;;;5030513;28;20199;-69
2021/04/10 01:32:13;;;;;;;7.97;2.63;;;10.40;99.90;;;;;;5029382;28;20200;-68
2021/04/10 01:34:49;;;;;;;4.67;2.40;;;10.30;99.90;;;;;;5026491;28;20199;-67
2021/04/10 01:37:24;;;;;;;11.13;2.50;;;10.20;99.90;;;;;;5030937;28;20235;-68
2021/04/10 01:39:51;;;;;;;11.07;2.50;;;10.10;99.90;;;;;;5030816;28;20192;-68
2021/04/10 01:42:24;;;;;;;8.70;2.60;;;10.00;99.90;;;;;;5029641;28;20605;-68
2021/04/10 01:44:58;;;;;;;6.63;2.70;;;10.00;99.90;;;;;;5042959;28;20633;-68
2021/04/10 01:47:30;;;;;;;17.80;2.90;;;9.90;99.90;;;;;;5033841;28;20245;-68
2021/04/10 01:49:57;;;;;;;6.47;2.40;;;9.80;99.90;;;;;;5024925;28;20604;-67
2021/04/10 01:52:24;;;;;;;9.00;2.37;;;9.80;99.90;;;;;;5026396;28;20254;-67
2021/04/10 01:54:51;;;;;;;8.53;3.00;;;9.60;99.90;;;;;;5026908;28;20210;-67
2021/04/10 01:57:20;;;;;;;5.83;2.60;;;9.60;99.90;;;;;;5006130;28;20236;-67
2021/04/10 01:59:48;;;;;;;12.17;3.10;;;9.50;99.90;;;;;;5024427;28;20198;-68
2021/04/10 02:02:15;;;;;;;10.30;2.80;;;9.40;99.90;;;;;;5023406;28;20226;-68
2021/04/10 02:04:46;;;;;;;8.30;2.80;;;9.40;99.90;;;;;;5019778;28;20540;-69
2021/04/10 02:07:15;;;;;;;5.87;1.87;;;9.50;99.90;;;;;;5031678;28;20222;-69
2021/04/10 02:09:46;;;;;;;4.70;2.03;;;9.60;99.90;;;;;;5015323;28;20207;-68
2021/04/10 02:12:17;;;;;;;8.60;2.43;;;9.50;99.90;;;;;;5047855;28;20194;-68
2021/04/10 02:14:45;;;;;;;5.60;2.33;;;9.50;99.90;;;;;;5024347;28;20211;-68
2021/04/10 02:17:18;;;;;;;5.10;2.30;;;9.60;99.90;;;;;;5013436;28;20227;-68
2021/04/10 02:19:46;;;;;;;4.50;2.30;;;9.60;99.90;;;;;;5025453;28;20189;-68
2021/04/10 02:22:15;;;;;;;6.77;2.30;;;9.60;99.90;;;;;;5022856;28;20255;-68
2021/04/10 02:24:43;;;;;;;4.30;2.10;;;9.50;99.90;;;;;;5024479;28;20188;-68
2021/04/10 02:27:10;;;;;;;3.80;1.70;;;9.30;99.90;;;;;;5024638;28;20777;-67
2021/04/10 02:29:36;;;;;;;5.77;1.97;;;9.20;99.90;;;;;;5030041;28;20200;-68
2021/04/10 02:32:11;;;;;;;5.97;1.80;;;9.20;99.90;;;;;;5028636;28;20207;-68
2021/04/10 02:35:00;;;;;;;6.07;1.80;;;9.10;99.90;;;;;;5027094;28;20203;-68
2021/04/10 02:37:29;;;;;;;7.40;1.63;;;9.20;99.90;;;;;;5025604;28;20207;-69
2021/04/10 02:39:56;;;;;;;9.20;1.80;;;9.20;99.90;;;;;;5030248;28;20200;-69
2021/04/10 02:42:27;;;;;;;5.33;2.00;;;9.10;99.90;;;;;;5027486;28;20229;-69
2021/04/10 02:44:56;;;;;;;4.37;1.80;;;9.20;99.90;;;;;;5034114;28;20183;-68
2021/04/10 02:47:26;;;;;;;2.93;1.77;;;9.30;99.90;;;;;;5024112;28;20208;-69
2021/04/10 02:50:05;;;;;;;5.20;1.80;;;9.40;99.90;;;;;;5022582;28;20557;-67
2021/04/10 02:52:49;;;;;;;6.00;2.20;;;9.40;99.90;;;;;;5027964;28;20188;-66
2021/04/10 02:55:24;;;;;;;6.20;2.10;;;8.90;99.90;;;;;;5028739;28;20545;-67
2021/04/10 02:58:00;;;;;;;6.73;1.80;;;8.90;99.90;;;;;;5031604;28;20261;-67
2021/04/10 03:00:26;;;;;;;6.93;2.00;;;9.00;99.90;;;;;;5032434;28;20199;-67
2021/04/10 03:02:57;;;;;;;4.63;1.90;;;9.00;99.90;;;;;;5030866;28;20549;-68
2021/04/10 03:05:24;;;;;;;4.03;1.40;;;8.80;99.90;;;;;;5030575;28;20188;-68
2021/04/10 03:07:52;;;;;;;1.90;1.30;;;8.90;99.90;;;;;;5031137;28;20191;-68
2021/04/10 03:10:20;;;;;;;3.73;1.57;;;8.90;99.90;;;;;;5030499;28;20196;-67
2021/04/10 03:12:48;;;;;;;4.70;1.70;;;8.70;99.90;;;;;;5028945;28;20242;-68
2021/04/10 03:15:17;;;;;;;6.13;2.10;;;8.70;99.90;;;;;;5030848;28;20205;-69
2021/04/10 03:17:45;;;;;;;4.73;1.90;;;8.70;99.90;;;;;;5025099;28;20228;-69
2021/04/10 03:20:15;;;;;;;5.70;2.07;;;8.80;99.90;;;;;;5022070;28;20224;-68
2021/04/10 03:22:47;;;;;;;4.53;2.00;;;8.80;99.90;;;;;;5030281;28;20637;-68
2021/04/10 03:25:15;;;;;;;6.50;2.13;;;8.60;99.90;;;;;;5030931;28;20227;-67
2021/04/10 03:27:46;;;;;;;7.03;2.10;;;8.70;99.90;;;;;;5028941;28;20246;-68
2021/04/10 03:30:14;;;;;;;4.40;1.90;;;8.60;99.90;;;;;;5025705;28;20185;-67
2021/04/10 03:32:45;;;;;;;2.87;1.73;;;8.70;99.90;;;;;;5031109;28;20175;-68
2021/04/10 03:35:13;;;;;;;3.43;1.80;;;8.80;99.90;;;;;;5048878;28;20206;-68
2021/04/10 03:37:40;;;;;;;7.00;1.47;;;8.70;99.90;;;;;;5026001;28;20211;-67
2021/04/10 03:40:08;;;;;;;6.87;2.10;;;8.60;99.90;;;;;;5015608;28;20957;-67
2021/04/10 03:42:44;;;;;;;11.50;2.37;;;8.70;99.90;;;;;;5029886;28;20188;-67
2021/04/10 03:45:18;;;;;;;8.57;2.60;;;8.90;99.90;;;;;;5032807;28;20183;-67
2021/04/10 03:47:46;;;;;;;9.40;2.70;;;8.90;99.90;;;;;;5028201;28;20185;-67
2021/04/10 03:50:13;;;;;;;8.07;2.40;;;8.90;99.90;;;;;;5017901;28;20203;-67
2021/04/10 03:52:41;;;;;;;11.33;2.67;;;8.90;99.90;;;;;;5032360;28;20199;-67
2021/04/10 03:55:10;;;;;;;10.00;2.50;;;8.90;99.90;;;;;;5028278;28;20286;-66
2021/04/10 03:57:36;;;;;;;7.47;2.13;;;8.90;99.90;;;;;;5034406;28;20238;-67
2021/04/10 04:00:05;;;;;;;9.40;2.97;;;9.00;99.90;;;;;;5035695;28;20279;-67
2021/04/10 04:02:32;;;;;;;9.43;2.60;;;9.00;99.90;;;;;;5031948;28;20954;-67
2021/04/10 04:04:58;;;;;;;9.73;2.50;;;8.90;99.90;;;;;;5032458;28;20645;-67
2021/04/10 04:07:25;;;;;;;8.53;2.47;;;9.00;99.90;;;;;;5033316;28;20192;-67
2021/04/10 04:09:51;;;;;;;12.13;2.50;;;9.00;99.90;;;;;;5025718;28;20590;-67
2021/04/10 04:12:17;;;;;;;10.00;2.57;;;9.00;99.90;;;;;;5028737;28;20224;-67
2021/04/10 04:14:44;;;;;;;10.87;2.90;;;9.00;99.90;;;;;;5034011;28;20199;-67
2021/04/10 04:17:10;;;;;;;17.83;2.70;;;9.10;99.90;;;;;;5017022;28;20217;-67
2021/04/10 04:19:36;;;;;;;9.13;2.80;;;9.10;99.90;;;;;;5027569;28;20200;-67
2021/04/10 04:22:03;;;;;;;19.67;3.30;;;9.10;99.90;;;;;;5026032;28;20196;-67
2021/04/10 04:24:30;;;;;;;9.80;2.60;;;9.20;99.90;;;;;;5031412;28;20188;-67
2021/04/10 04:26:58;;;;;;;12.27;2.97;;;9.20;99.90;;;;;;5028624;28;20203;-67
2021/04/10 04:29:25;;;;;;;16.03;2.37;;;9.20;99.90;;;;;;5031645;28;21026;-67
2021/04/10 04:31:51;;;;;;;7.90;2.40;;;9.30;99.90;;;;;;5029787;28;20568;-67
2021/04/10 04:34:17;;;;;;;17.93;2.47;;;9.30;99.90;;;;;;5028237;28;20283;-67
2021/04/10 04:36:44;;;;;;;17.43;3.00;;;9.30;99.90;;;;;;5026643;28;20560;-68
2021/04/10 04:39:10;;;;;;;19.50;3.20;;;9.40;99.90;;;;;;5047372;28;20223;-68
2021/04/10 04:41:36;;;;;;;13.37;2.80;;;9.30;99.90;;;;;;5032415;28;20279;-68
2021/04/10 04:44:03;;;;;;;13.27;3.20;;;9.30;99.90;;;;;;5026200;28;20274;-67
2021/04/10 04:46:29;;;;;;;16.93;2.90;;;9.30;99.90;;;;;;5031823;28;20614;-68
2021/04/10 04:48:55;;;;;;;15.80;3.00;;;9.30;99.90;;;;;;5033545;28;20242;-68
2021/04/10 04:51:22;;;;;;;21.33;3.83;;;9.30;99.90;;;;;;5021855;28;20275;-68
2021/04/10 04:53:48;;;;;;;10.80;2.80;;;9.20;99.90;;;;;;5034562;28;20215;-68
2021/04/10 04:56:15;;;;;;;13.83;2.77;;;9.10;99.90;;;;;;5046372;28;20250;-67
2021/04/10 04:58:42;;;;;;;12.40;2.27;;;9.00;99.90;;;;;;5034036;28;20192;-67
2021/04/10 05:01:08;;;;;;;18.53;2.50;;;8.70;99.90;;;;;;5030719;28;20553;-66
2021/04/10 05:03:34;;;;;;;12.10;2.60;;;8.50;99.90;;;;;;5026979;28;20180;-69
2021/04/10 05:06:01;;;;;;;13.63;2.30;;;8.30;99.90;;;;;;5012587;28;20193;-67
2021/04/10 05:08:27;;;;;;;10.73;2.10;;;8.20;99.90;;;;;;5027317;28;20224;-67
2021/04/10 05:10:53;;;;;;;12.03;2.00;;;8.00;99.90;;;;;;5031318;28;20208;-68
2021/04/10 05:13:20;;;;;;;6.77;1.80;;;7.90;99.90;;;;;;5034105;28;20196;-67
2021/04/10 05:15:46;;;;;;;7.70;2.07;;;7.70;99.90;;;;;;5037250;28;20205;-68
2021/04/10 05:18:12;;;;;;;11.07;1.83;;;7.70;99.90;;;;;;5037679;28;20533;-67
2021/04/10 05:20:39;;;;;;;5.87;1.37;;;7.80;99.90;;;;;;5028005;28;20191;-67
2021/04/10 05:23:05;;;;;;;10.03;1.80;;;7.70;99.90;;;;;;5020213;28;20192;-67
2021/04/10 05:25:31;;;;;;;10.70;1.60;;;7.80;99.90;;;;;;5031396;28;20211;-68
2021/04/10 05:27:58;;;;;;;9.27;1.20;;;7.70;99.90;;;;;;5026790;28;20237;-68
2021/04/10 05:30:24;;;;;;;6.30;1.50;;;7.80;99.90;;;;;;5025673;28;20284;-68
2021/04/10 05:32:51;;;;;;;3.67;1.00;;;7.80;99.90;;;;;;5007492;28;20189;-67
2021/04/10 05:35:17;;;;;;;12.17;1.07;;;7.90;99.90;;;;;;5009440;28;20579;-67
2021/04/10 05:37:44;;;;;;;8.10;1.00;;;7.90;99.90;;;;;;5014522;28;20675;-68
2021/04/10 05:40:11;;;;;;;3.83;1.40;;;7.90;99.90;;;;;;5027547;28;20191;-68
2021/04/10 05:42:37;;;;;;;2.03;0.70;;;7.90;99.90;;;;;;5030831;28;20219;-68
2021/04/10 05:45:05;;;;;;;4.17;0.80;;;7.90;99.90;;;;;;5035638;28;20825;-68
2021/04/10 05:47:31;;;;;;;4.57;1.70;;;7.90;99.90;;;;;;5032951;28;20207;-67
2021/04/10 05:49:57;;;;;;;2.50;1.10;;;7.90;99.90;;;;;;5029846;28;20238;-68
2021/04/10 05:52:23;;;;;;;1.40;0.80;;;7.80;99.90;;;;;;5023938;28;20184;-68
2021/04/10 05:54:50;;;;;;;3.90;0.93;;;7.80;99.90;;;;;;5032192;28;20190;-68
2021/04/10 05:57:16;;;;;;;3.20;1.00;;;7.90;99.90;;;;;;5026921;28;20204;-68
2021/04/10 05:59:42;;;;;;;6.80;1.70;;;7.90;99.90;;;;;;5028948;28;20184;-68
2021/04/10 06:02:09;;;;;;;4.13;1.10;;;7.90;99.90;;;;;;5032776;28;20214;-68
2021/04/10 06:04:36;;;;;;;4.23;1.17;;;8.00;99.90;;;;;;5027138;28;20229;-68
2021/04/10 06:07:04;;;;;;;4.00;0.97;;;8.10;99.90;;;;;;5041648;28;20208;-67
2021/04/10 06:09:30;;;;;;;4.20;1.73;;;8.20;99.90;;;;;;5024910;28;20247;-68
2021/04/10 06:11:57;;;;;;;3.07;0.70;;;8.20;99.90;;;;;;5028459;28;20187;-68
2021/04/10 06:14:23;;;;;;;3.67;1.57;;;8.20;99.90;;;;;;5031146;28;20180;-68
2021/04/10 06:16:53;;;;;;;5.27;1.40;;;8.30;99.90;;;;;;5028868;28;20210;-67
2021/04/10 06:19:21;;;;;;;3.83;1.40;;;8.30;99.90;;;;;;5027243;28;20831;-68
2021/04/10 06:21:48;;;;;;;3.07;1.60;;;8.40;99.90;;;;;;5026942;28;20192;-67
2021/04/10 06:24:15;;;;;;;5.07;1.63;;;8.50;99.90;;;;;;5018241;28;20184;-66
2021/04/10 06:26:43;;;;;;;5.43;1.43;;;8.60;99.90;;;;;;5026753;28;20227;-67
2021/04/10 06:29:11;;;;;;;4.70;1.33;;;8.70;99.90;;;;;;5028067;28;20203;-67
2021/04/10 06:31:49;;;;;;;4.47;1.20;;;8.80;99.90;;;;;;5026278;28;20241;-67
2021/04/10 06:34:16;;;;;;;2.57;1.40;;;8.70;99.90;;;;;;5026573;28;20203;-67
2021/04/10 06:36:42;;;;;;;8.20;1.40;;;8.60;99.90;;;;;;5026165;28;20211;-67
2021/04/10 06:39:08;;;;;;;4.50;1.40;;;8.70;99.90;;;;;;5025291;28;20242;-68
2021/04/10 06:41:35;;;;;;;2.83;1.17;;;8.80;99.90;;;;;;5016899;28;20188;-68
2021/04/10 06:44:03;;;;;;;3.30;1.23;;;8.80;99.90;;;;;;5021016;28;20212;-67
2021/04/10 06:46:34;;;;;;;3.70;1.40;;;8.90;99.90;;;;;;5022497;28;20664;-68
2021/04/10 06:49:05;;;;;;;3.03;1.47;;;8.90;99.90;;;;;;5022905;28;20196;-68
2021/04/10 06:51:32;;;;;;;4.33;1.57;;;8.90;99.90;;;;;;5018787;28;20307;-67
2021/04/10 06:54:01;;;;;;;3.20;1.63;;;8.90;99.90;;;;;;5028998;28;20189;-67
2021/04/10 06:56:32;;;;;;;5.70;1.87;;;9.00;99.90;;;;;;5016283;28;20204;-67
2021/04/10 06:59:36;;;;;;;7.90;1.80;;;8.90;99.90;;;;;;5026835;28;20181;-67
2021/04/10 07:02:05;;;;;;;3.87;1.60;;;8.80;99.90;;;;;;5035633;28;20705;-67
2021/04/10 07:04:32;;;;;;;2.90;1.70;;;8.80;99.90;;;;;;5028266;28;20219;-67
2021/04/10 07:06:59;;;;;;;4.67;2.17;;;8.70;99.90;;;;;;5008977;28;20190;-67
2021/04/10 07:09:27;;;;;;;5.47;1.80;;;8.70;99.90;;;;;;5031332;28;20323;-68
2021/04/10 07:11:55;;;;;;;2.93;1.97;;;8.60;99.90;;;;;;5026036;28;20188;-67
2021/04/10 07:14:21;;;;;;;4.87;2.13;;;8.60;99.90;;;;;;5028506;28;20812;-67
2021/04/10 07:16:47;;;;;;;6.17;2.50;;;8.50;99.90;;;;;;5027366;28;20300;-67
2021/04/10 07:19:15;;;;;;;4.53;2.30;;;8.70;99.90;;;;;;5025481;28;20532;-67
2021/04/10 07:21:41;;;;;;;7.17;2.10;;;8.70;99.90;;;;;;5028546;28;20177;-67
2021/04/10 07:24:08;;;;;;;3.23;1.80;;;8.80;99.90;;;;;;5028577;28;20283;-67
2021/04/10 07:26:54;;;;;;;8.07;2.30;;;9.00;99.90;;;;;;5020546;28;20211;-68
2021/04/10 07:29:43;;;;;;;4.87;1.77;;;9.00;99.90;;;;;;5006838;28;20199;-67
2021/04/10 07:32:38;;;;;;;5.17;1.67;;;9.20;99.90;;;;;;5025443;28;20200;-68
2021/04/10 07:35:13;;;;;;;10.47;1.80;;;9.40;99.90;;;;;;5026789;28;20322;-68
2021/04/10 07:37:48;;;;;;;2.67;1.50;;;9.60;99.90;;;;;;5028555;28;20207;-67
2021/04/10 07:40:35;;;;;;;7.30;1.83;;;9.80;99.90;;;;;;5027120;28;20635;-66
2021/04/10 07:43:02;;;;;;;2.20;1.47;;;9.90;99.90;;;;;;5023308;28;20588;-67
2021/04/10 07:45:34;;;;;;;2.80;1.30;;;9.80;99.90;;;;;;5024292;28;20742;-66
2021/04/10 07:48:14;;;;;;;6.50;1.40;;;9.90;99.90;;;;;;5022191;28;20597;-66
2021/04/10 07:50:41;;;;;;;3.57;1.20;;;9.80;99.90;;;;;;5027167;28;20184;-67
2021/04/10 07:53:26;;;;;;;7.20;1.67;;;9.80;99.90;;;;;;5025238;28;20181;-66
2021/04/10 07:55:55;;;;;;;4.23;1.60;;;10.00;99.90;;;;;;5022902;28;20210;-66
2021/04/10 07:58:37;;;;;;;2.60;1.30;;;10.10;99.90;;;;;;5020617;28;20184;-67
2021/04/10 08:01:09;;;;;;;2.00;1.33;;;10.20;99.90;;;;;;5023761;28;20192;-67
2021/04/10 08:03:41;;;;;;;3.53;1.50;;;10.10;99.90;;;;;;5028335;28;20529;-66
2021/04/10 08:06:07;;;;;;;3.80;1.70;;;9.90;99.90;;;;;;5018929;28;20200;-67
2021/04/10 08:08:46;;;;;;;4.43;1.50;;;9.80;99.90;;;;;;5024354;28;20188;-67
2021/04/10 08:11:13;;;;;;;5.30;1.47;;;9.70;99.90;;;;;;5025305;28;20192;-66
2021/04/10 08:14:10;;;;;;;3.47;1.33;;;9.60;99.90;;;;;;5025514;28;20192;-67
2021/04/10 08:16:49;;;;;;;8.53;1.60;;;9.70;99.90;;;;;;5034315;28;20247;-66
2021/04/10 08:19:17;;;;;;;4.23;1.30;;;9.80;99.90;;;;;;5020426;28;20525;-66
2021/04/10 08:21:49;;;;;;;3.57;1.70;;;9.90;99.90;;;;;;5022983;28;20235;-66
2021/04/10 08:24:31;;;;;;;3.10;1.83;;;9.90;99.90;;;;;;5021676;28;20591;-66
2021/04/10 08:27:13;;;;;;;4.73;1.80;;;9.90;99.90;;;;;;5002143;28;20192;-66
2021/04/10 08:29:42;;;;;;;6.90;1.50;;;10.20;99.90;;;;;;5020433;28;20192;-66
2021/04/10 08:32:11;;;;;;;5.03;1.87;;;10.20;99.90;;;;;;5019828;28;20188;-67
2021/04/10 08:34:38;;;;;;;8.33;2.00;;;10.30;99.90;;;;;;5006045;28;20195;-66
2021/04/10 08:37:13;;;;;;;4.50;1.73;;;10.40;99.90;;;;;;5023762;28;20579;-67
2021/04/10 08:39:51;;;;;;;6.07;1.50;;;10.50;99.90;;;;;;5022948;28;20634;-67
2021/04/10 08:42:18;;;;;;;7.40;1.50;;;10.50;99.90;;;;;;5024752;28;20184;-67
2021/04/10 08:44:47;;;;;;;14.90;1.73;;;10.60;99.90;;;;;;5024336;28;20196;-68
2021/04/10 08:47:14;;;;;;;3.97;1.30;;;10.70;99.90;;;;;;5025968;28;20234;-67
2021/04/10 08:49:48;;;;;;;3.23;1.33;;;10.80;99.90;;;;;;5011083;28;20275;-66
2021/04/10 08:52:34;;;;;;;4.30;1.50;;;10.70;99.90;;;;;;5016363;28;20223;-66
2021/04/10 08:55:02;;;;;;;3.83;1.20;;;10.80;99.90;;;;;;5026818;28;20259;-66
2021/04/10 08:57:42;;;;;;;3.63;1.43;;;10.80;99.90;;;;;;5015204;28;20219;-67
2021/04/10 09:00:30;;;;;;;2.53;1.47;;;10.90;99.90;;;;;;5033426;28;20199;-69
2021/04/10 09:03:00;;;;;;;6.17;1.60;;;11.20;99.90;;;;;;5018963;28;20208;-68
2021/04/10 09:05:59;;;;;;;9.57;1.47;;;11.20;99.90;;;;;;5026408;28;20184;-67
2021/04/10 09:08:29;;;;;;;6.27;1.13;;;11.00;99.90;;;;;;4996474;28;20202;-68
2021/04/10 09:10:59;;;;;;;4.67;1.30;;;10.90;99.90;;;;;;5023796;28;20230;-68
2021/04/10 09:13:28;;;;;;;7.90;1.77;;;11.00;99.90;;;;;;5021765;28;20291;-68
2021/04/10 09:16:22;;;;;;;11.10;1.73;;;11.00;99.90;;;;;;5016949;28;20197;-69
2021/04/10 09:19:12;;;;;;;9.83;1.20;;;11.10;99.90;;;;;;5021643;28;20225;-68
2021/04/10 09:21:52;;;;;;;5.67;1.37;;;11.20;99.90;;;;;;5009650;28;20690;-66
2021/04/10 09:24:47;;;;;;;2.93;1.17;;;11.30;99.90;;;;;;5031940;28;20188;-69
2021/04/10 09:27:19;;;;;;;6.50;1.27;;;11.60;99.90;;;;;;5025250;28;20200;-68
2021/04/10 09:30:04;;;;;;;7.87;1.20;;;12.00;99.90;;;;;;5000680;28;20184;-68
2021/04/10 09:32:41;;;;;;;2.80;1.00;;;12.20;99.90;;;;;;5023512;28;20519;-69
2021/04/10 09:35:15;;;;;;;1.93;1.00;;;12.20;99.90;;;;;;5024926;28;20199;-68
2021/04/10 09:37:49;;;;;;;5.07;1.00;;;12.30;99.90;;;;;;5026096;28;20208;-69
2021/04/10 09:40:23;;;;;;;3.20;1.13;;;12.50;99.90;;;;;;5024642;28;20184;-69
2021/04/10 09:43:01;;;;;;;8.00;1.20;;;12.50;99.90;;;;;;5025324;28;20197;-69
2021/04/10 09:45:34;;;;;;;1.63;1.07;;;12.60;99.90;;;;;;5025576;28;20649;-69
2021/04/10 09:48:11;;;;;;;4.83;1.00;;;12.60;99.90;;;;;;5006636;28;20196;-69
2021/04/10 09:51:00;;;;;;;8.63;1.20;;;12.50;99.90;;;;;;5025780;28;20237;-69
2021/04/10 09:53:29;;;;;;;2.90;1.43;;;12.70;99.90;;;;;;5009720;28;20315;-69
2021/04/10 09:56:08;;;;;;;4.47;1.00;;;12.90;99.90;;;;;;5008779;28;20200;-69
2021/04/10 09:58:51;;;;;;;3.90;1.10;;;13.10;99.90;;;;;;5005710;28;20604;-69
2021/04/10 10:01:23;;;;;;;4.57;1.23;;;13.10;99.90;;;;;;5017788;28;20202;-69
2021/04/10 10:03:51;;;;;;;5.73;1.33;;;13.20;99.90;;;;;;5025304;28;20220;-69
2021/04/10 10:06:28;;;;;;;2.20;0.97;;;13.20;99.90;;;;;;5023612;28;20192;-69
2021/04/10 10:09:20;;;;;;;7.23;0.90;;;13.30;99.90;;;;;;5021972;28;20195;-69
2021/04/10 10:11:56;;;;;;;1.90;0.80;;;13.40;99.90;;;;;;5008656;28;20184;-67
2021/04/10 10:14:25;;;;;;;3.87;1.10;;;13.60;99.90;;;;;;5008152;28;20561;-68
2021/04/10 10:16:53;;;;;;;3.13;1.00;;;13.60;99.90;;;;;;5023587;28;20258;-67
2021/04/10 10:19:22;;;;;;;5.43;1.10;;;13.70;99.90;;;;;;5027134;28;20192;-69
2021/04/10 10:21:53;;;;;;;2.40;0.70;;;13.60;99.90;;;;;;5026031;28;20192;-67
2021/04/10 10:24:25;;;;;;;6.53;1.10;;;13.80;99.90;;;;;;5004229;28;20185;-67
2021/04/10 10:26:53;;;;;;;6.30;0.90;;;14.00;99.90;;;;;;5007698;28;20790;-67
2021/04/10 10:29:24;;;;;;;2.17;0.90;;;14.30;99.90;;;;;;5022472;28;20192;-67
2021/04/10 10:32:01;;;;;;;2.27;0.70;;;14.30;99.90;;;;;;5001267;28;20184;-67
2021/04/10 10:34:32;;;;;;;2.43;0.83;;;14.30;99.90;;;;;;5011344;28;20207;-67
2021/04/10 10:36:58;;;;;;;6.03;1.00;;;14.30;99.90;;;;;;5030234;28;20883;-67
2021/04/10 10:39:33;;;;;;;1.47;0.67;;;14.30;99.90;;;;;;5027021;28;20200;-67
2021/04/10 10:42:05;;;;;;;4.40;0.83;;;14.20;99.90;;;;;;5025871;28;20191;-67
2021/04/10 10:44:36;;;;;;;2.47;0.80;;;13.80;99.90;;;;;;5026736;28;20549;-67
2021/04/10 10:47:09;;;;;;;4.40;0.83;;;13.50;99.90;;;;;;5003167;28;20184;-67
2021/04/10 10:49:37;;;;;;;6.07;1.53;;;13.60;99.90;;;;;;5031485;28;20183;-68
2021/04/10 10:52:15;;;;;;;4.80;1.03;;;13.60;99.90;;;;;;5008303;28;20199;-67
2021/04/10 10:54:47;;;;;;;3.63;0.97;;;13.70;99.90;;;;;;5026570;28;20180;-68
2021/04/10 10:57:19;;;;;;;3.17;0.93;;;13.70;99.90;;;;;;5010977;28;20239;-68
2021/04/10 10:59:46;;;;;;;4.63;1.10;;;13.70;99.90;;;;;;5013156;28;20188;-68
2021/04/10 11:02:20;;;;;;;6.90;1.20;;;14.00;99.90;;;;;;4999981;28;20196;-68
2021/04/10 11:04:47;;;;;;;3.53;1.10;;;14.00;99.90;;;;;;5027238;28;20215;-69
2021/04/10 11:07:22;;;;;;;5.00;1.47;;;14.20;99.90;;;;;;5021062;28;20243;-68
2021/04/10 11:09:50;;;;;;;5.33;1.10;;;14.20;99.90;;;;;;5021519;28;20196;-69
2021/04/10 11:12:19;;;;;;;2.10;0.90;;;14.10;99.90;;;;;;5027380;28;20231;-68
2021/04/10 11:14:47;;;;;;;5.77;1.17;;;14.00;99.90;;;;;;5028672;28;20188;-68
2021/04/10 11:17:31;;;;;;;11.17;1.37;;;14.10;99.90;;;;;;5028394;28;20216;-68
2021/04/10 11:20:00;;;;;;;9.13;1.43;;;13.80;99.90;;;;;;5027354;28;20207;-68
2021/04/10 11:22:26;;;;;;;3.07;1.10;;;13.50;99.90;;;;;;5026979;28;20191;-68
2021/04/10 11:25:00;;;;;;;2.23;1.43;;;13.60;99.90;;;;;;5023493;28;20281;-68
2021/04/10 11:27:34;;;;;;;7.77;1.47;;;13.60;99.90;;;;;;5023379;28;20201;-68
2021/04/10 11:30:10;;;;;;;9.57;1.63;;;13.70;99.90;;;;;;5026333;28;20201;-68
2021/04/10 11:32:42;;;;;;;7.30;1.20;;;13.70;99.90;;;;;;5017515;28;20191;-68
2021/04/10 11:35:22;;;;;;;3.87;1.13;;;13.70;99.90;;;;;;5027799;28;20219;-68
2021/04/10 11:37:54;;;;;;;4.37;1.47;;;13.60;99.90;;;;;;5042598;28;20733;-68
2021/04/10 11:40:28;;;;;;;6.53;1.53;;;13.30;99.90;;;;;;5038439;28;20193;-69
2021/04/10 11:42:59;;;;;;;4.47;1.30;;;13.20;99.90;;;;;;5019697;28;20761;-68
2021/04/10 11:45:47;;;;;;;11.70;1.53;;;13.10;99.90;;;;;;5028026;28;20188;-68
2021/04/10 11:48:23;;;;;;;3.67;1.20;;;13.20;99.90;;;;;;5006714;28;20596;-68
2021/04/10 11:50:59;;;;;;;4.20;1.30;;;13.10;99.90;;;;;;5011608;28;20196;-68
2021/04/10 11:53:28;;;;;;;4.03;1.30;;;13.30;99.90;;;;;;5012279;28;20195;-68
2021/04/10 11:55:59;;;;;;;4.67;1.30;;;13.30;99.90;;;;;;5010295;28;20203;-68
2021/04/10 11:58:36;;;;;;;3.90;1.03;;;13.40;99.90;;;;;;5009974;28;20200;-67
2021/04/10 12:01:14;;;;;;;6.87;1.33;;;13.20;99.90;;;;;;5023892;28;20401;-68
2021/04/10 12:03:48;;;;;;;4.10;1.33;;;12.90;99.90;;;;;;5022113;28;20514;-67
2021/04/10 12:06:39;;;;;;;3.33;1.30;;;12.80;99.90;;;;;;5028272;28;20196;-68
2021/04/10 12:09:09;;;;;;;5.13;1.50;;;13.20;99.90;;;;;;5027301;28;20188;-68
2021/04/10 12:11:41;;;;;;;8.67;1.50;;;13.30;99.90;;;;;;5008606;28;20188;-68
2021/04/10 12:14:11;;;;;;;3.03;1.40;;;13.40;99.90;;;;;;5010712;28;20196;-68
2021/04/10 12:16:43;;;;;;;6.53;1.53;;;13.60;99.90;;;;;;5025777;28;20801;-68
2021/04/10 12:19:14;;;;;;;6.07;1.23;;;13.80;99.90;;;;;;5022669;28;20618;-68
2021/04/10 12:21:42;;;;;;;5.63;1.83;;;13.90;99.90;;;;;;5010495;28;20195;-68
2021/04/10 12:24:10;;;;;;;9.93;1.50;;;13.80;99.90;;;;;;5023713;28;20196;-68
2021/04/10 12:26:38;;;;;;;5.93;1.30;;;13.60;99.90;;;;;;5024534;28;20801;-68
2021/04/10 12:29:06;;;;;;;6.27;1.80;;;13.40;99.90;;;;;;5025651;28;20606;-68
2021/04/10 12:31:35;;;;;;;4.43;1.53;;;13.40;99.90;;;;;;5006910;28;20236;-68
2021/04/10 12:34:01;;;;;;;2.50;0.97;;;13.30;99.90;;;;;;5024059;28;20293;-68
2021/04/10 12:36:30;;;;;;;5.33;1.50;;;13.40;99.90;;;;;;5003080;28;20208;-68
2021/04/10 12:38:58;;;;;;;8.47;1.30;;;13.60;99.90;;;;;;5024008;28;20184;-67
2021/04/10 12:41:25;;;;;;;4.93;1.50;;;13.80;99.90;;;;;;5026159;28;20201;-68
2021/04/10 12:43:53;;;;;;;3.50;1.60;;;13.80;99.90;;;;;;5024195;28;20177;-68
2021/04/10 12:46:23;;;;;;;4.93;1.60;;;13.60;99.90;;;;;;5022182;28;20533;-68
2021/04/10 12:48:50;;;;;;;4.60;1.20;;;13.70;99.90;;;;;;5020701;28;20192;-68
2021/04/10 12:51:19;;;;;;;4.87;1.33;;;13.90;99.90;;;;;;5029614;28;20700;-68
2021/04/10 12:53:46;;;;;;;2.50;1.10;;;14.00;99.90;;;;;;5024928;28;20220;-68
2021/04/10 12:56:16;;;;;;;6.83;1.77;;;13.90;99.90;;;;;;5004625;28;20891;-68
2021/04/10 12:58:43;;;;;;;5.80;1.10;;;13.90;99.90;;;;;;5029500;28;20784;-68
2021/04/10 13:01:09;;;;;;;5.73;1.30;;;13.80;99.90;;;;;;5024142;28;20188;-68
2021/04/10 13:03:35;;;;;;;4.57;1.10;;;13.90;99.90;;;;;;5023719;28;20218;-68
2021/04/10 13:06:02;;;;;;;5.77;1.40;;;14.20;99.90;;;;;;5015488;28;20227;-68
2021/04/10 13:08:29;;;;;;;3.30;1.20;;;14.00;99.90;;;;;;5028514;28;20172;-68
2021/04/10 13:10:55;;;;;;;4.80;1.30;;;13.80;99.90;;;;;;5008391;28;20732;-68
2021/04/10 13:13:23;;;;;;;5.47;1.17;;;13.90;99.90;;;;;;5020977;28;20187;-68